createdAt,value
2019-05-28T00:00:16.967Z,3.10
2019-05-28T00:02:44.515Z,2.53
2019-05-28T00:05:12.822Z,2.90
2019-05-28T00:07:40.277Z,2.40
2019-05-28T00:10:08.257Z,2.70
2019-05-28T00:12:35.837Z,2.67
2019-05-28T00:15:04.891Z,2.53
2019-05-28T00:17:32.429Z,2.67
2019-05-28T00:19:59.879Z,2.60
2019-05-28T00:22:27.449Z,2.50
2019-05-28T00:24:54.967Z,2.10
2019-05-28T00:27:22.520Z,2.27
2019-05-28T00:29:49.944Z,2.40
2019-05-28T00:32:17.459Z,2.60
2019-05-28T00:34:44.965Z,2.30
2019-05-28T00:37:12.514Z,2.90
2019-05-28T00:39:40.093Z,2.53
2019-05-28T00:42:07.641Z,3.17
2019-05-28T00:44:35.572Z,2.90
2019-05-28T00:47:06.490Z,2.43
2019-05-28T00:49:34.089Z,2.60
2019-05-28T00:52:01.607Z,2.40
2019-05-28T00:54:29.162Z,2.60
2019-05-28T00:56:57.123Z,2.97
2019-05-28T00:59:26.009Z,3.03
2019-05-28T01:01:53.565Z,2.67
2019-05-28T01:04:21.023Z,3.03
2019-05-28T01:06:50.427Z,2.70
2019-05-28T01:09:18.009Z,2.93
2019-05-28T01:11:45.435Z,2.53
2019-05-28T01:14:13.025Z,2.90
2019-05-28T01:16:43.561Z,3.10
2019-05-28T01:19:11.098Z,3.13
2019-05-28T01:21:38.654Z,2.40
2019-05-28T01:24:06.235Z,3.20
2019-05-28T01:26:34.795Z,3.20
2019-05-28T01:29:02.349Z,3.43
2019-05-28T01:31:29.858Z,2.97
2019-05-28T01:33:57.326Z,2.77
2019-05-28T01:36:24.924Z,3.07
2019-05-28T01:38:52.483Z,3.47
2019-05-28T01:41:20.046Z,3.10
2019-05-28T01:43:47.521Z,3.20
2019-05-28T01:46:15.049Z,3.57
2019-05-28T01:48:42.716Z,3.53
2019-05-28T01:51:10.260Z,2.63
2019-05-28T01:53:37.845Z,3.70
2019-05-28T01:56:05.376Z,3.33
2019-05-28T01:58:32.919Z,3.73
2019-05-28T02:01:12.248Z,3.57
2019-05-28T02:03:29.843Z,3.50
2019-05-28T02:05:57.357Z,3.77
2019-05-28T02:08:24.890Z,3.50
2019-05-28T02:10:52.301Z,3.73
2019-05-28T02:13:19.790Z,3.47
2019-05-28T02:15:47.332Z,3.90
2019-05-28T02:18:14.814Z,3.90
2019-05-28T02:20:42.397Z,3.70
2019-05-28T02:23:09.956Z,4.10
2019-05-28T02:25:37.539Z,4.13
2019-05-28T02:28:05.144Z,4.23
2019-05-28T02:30:32.700Z,3.77
2019-05-28T02:33:00.190Z,4.57
2019-05-28T02:35:27.748Z,4.43
2019-05-28T02:37:55.419Z,4.53
2019-05-28T02:40:23.091Z,5.30
2019-05-28T02:42:50.629Z,5.47
2019-05-28T02:45:18.558Z,5.10
2019-05-28T02:47:46.092Z,4.30
2019-05-28T02:50:14.022Z,5.00
2019-05-28T02:52:41.990Z,4.77
2019-05-28T02:55:10.142Z,4.27
2019-05-28T02:57:39.777Z,4.93
2019-05-28T03:00:07.799Z,4.30
2019-05-28T03:02:36.426Z,4.93
2019-05-28T03:05:04.802Z,4.70
2019-05-28T03:07:33.998Z,4.03
2019-05-28T03:10:03.609Z,5.03
2019-05-28T03:12:31.159Z,5.03
2019-05-28T03:14:58.724Z,4.43
2019-05-28T03:17:29.011Z,4.33
2019-05-28T03:19:58.868Z,4.80
2019-05-28T03:22:28.044Z,4.70
2019-05-28T03:24:55.804Z,4.43
2019-05-28T03:27:23.336Z,4.93
2019-05-28T03:29:50.850Z,4.93
2019-05-28T03:32:18.404Z,5.20
2019-05-28T03:34:45.957Z,4.70
2019-05-28T03:37:14.497Z,5.87
2019-05-28T03:39:45.248Z,4.80
2019-05-28T03:42:12.804Z,5.33
2019-05-28T03:44:40.327Z,5.10
2019-05-28T03:47:08.897Z,5.60
2019-05-28T03:49:36.424Z,4.93
2019-05-28T03:52:03.957Z,5.03
2019-05-28T03:54:33.462Z,5.70
2019-05-28T03:57:01.116Z,5.60
2019-05-28T03:59:28.618Z,5.43
2019-05-28T04:01:56.142Z,5.37
2019-05-28T04:04:23.677Z,5.60
2019-05-28T04:06:51.211Z,5.90
2019-05-28T04:09:18.820Z,5.77
2019-05-28T04:11:46.394Z,5.33
2019-05-28T04:14:14.153Z,5.83
2019-05-28T04:16:41.994Z,6.30
2019-05-28T04:19:11.616Z,6.30
2019-05-28T04:21:40.214Z,6.67
2019-05-28T04:24:07.780Z,6.57
2019-05-28T04:26:35.325Z,6.33
2019-05-28T04:29:02.877Z,5.63
2019-05-28T04:31:30.410Z,6.30
2019-05-28T04:33:58.445Z,6.27
2019-05-28T04:36:26.265Z,6.23
2019-05-28T04:38:53.776Z,6.00
2019-05-28T04:41:21.354Z,6.33
2019-05-28T04:43:48.890Z,5.80
2019-05-28T04:46:16.423Z,6.50
2019-05-28T04:48:43.932Z,6.53
2019-05-28T04:51:11.485Z,6.10
2019-05-28T04:53:39.058Z,6.60
2019-05-28T04:56:06.606Z,6.13
2019-05-28T04:58:34.252Z,5.60
2019-05-28T05:01:01.861Z,6.57
2019-05-28T05:03:29.427Z,6.77
2019-05-28T05:05:57.007Z,6.13
2019-05-28T05:08:24.555Z,6.40
2019-05-28T05:10:52.103Z,6.63
2019-05-28T05:13:39.987Z,6.03
2019-05-28T05:16:07.527Z,5.90
2019-05-28T05:18:35.070Z,5.90
2019-05-28T05:21:02.660Z,6.37
2019-05-28T05:23:42.957Z,5.93
2019-05-28T05:26:10.501Z,6.30
2019-05-28T05:28:39.979Z,5.97
2019-05-28T05:31:07.395Z,6.07
2019-05-28T05:33:34.978Z,6.30
2019-05-28T05:36:02.530Z,6.40
2019-05-28T05:38:30.135Z,6.13
2019-05-28T05:40:57.688Z,6.10
2019-05-28T05:43:25.356Z,6.30
2019-05-28T05:45:52.862Z,6.77
2019-05-28T05:48:21.713Z,6.13
2019-05-28T05:50:49.249Z,7.00
2019-05-28T05:53:16.821Z,7.00
2019-05-28T05:55:44.453Z,6.67
2019-05-28T05:58:12.040Z,7.50
2019-05-28T06:00:39.605Z,6.90
2019-05-28T06:03:07.211Z,7.10
2019-05-28T06:05:34.764Z,7.27
2019-05-28T06:08:02.454Z,5.90
2019-05-28T06:10:30.037Z,5.97
2019-05-28T06:12:57.761Z,5.27
2019-05-28T06:15:25.289Z,4.73
2019-05-28T06:17:52.968Z,4.33
2019-05-28T06:20:20.593Z,3.80
2019-05-28T06:22:48.257Z,3.50
2019-05-28T06:25:16.528Z,3.83
2019-05-28T06:27:44.038Z,4.30
2019-05-28T06:30:12.003Z,4.50
2019-05-28T06:32:39.594Z,4.63
2019-05-28T06:35:07.526Z,5.80
2019-05-28T06:37:35.086Z,5.57
2019-05-28T06:40:02.841Z,5.40
2019-05-28T06:42:34.322Z,5.50
2019-05-28T06:44:59.746Z,4.97
2019-05-28T06:47:30.767Z,5.50
2019-05-28T06:49:58.326Z,6.53
2019-05-28T06:52:25.893Z,6.20
2019-05-28T06:54:53.452Z,6.10
2019-05-28T06:57:25.758Z,6.23
2019-05-28T06:59:53.259Z,6.43
2019-05-28T07:02:20.815Z,6.70
2019-05-28T07:04:48.376Z,7.07
2019-05-28T07:07:15.875Z,6.80
2019-05-28T07:09:43.477Z,7.43
2019-05-28T07:12:11.053Z,6.70
2019-05-28T07:14:38.584Z,6.23
2019-05-28T07:17:06.013Z,5.70
2019-05-28T07:19:33.579Z,5.70
2019-05-28T07:22:01.066Z,3.73
2019-05-28T07:24:28.618Z,3.47
2019-05-28T07:26:56.184Z,4.00
2019-05-28T07:29:23.788Z,3.87
2019-05-28T07:31:51.309Z,3.60
2019-05-28T07:34:30.381Z,4.03
2019-05-28T07:36:48.173Z,3.40
2019-05-28T07:39:15.732Z,3.83
2019-05-28T07:41:43.270Z,3.70
2019-05-28T07:44:10.771Z,4.27
2019-05-28T07:46:38.305Z,3.90
2019-05-28T07:49:05.842Z,3.43
2019-05-28T07:51:33.373Z,3.30
2019-05-28T07:54:00.845Z,3.30
2019-05-28T07:56:28.394Z,3.10
2019-05-28T07:58:58.676Z,2.87
2019-05-28T08:01:26.226Z,2.60
2019-05-28T08:03:53.780Z,2.50
2019-05-28T08:06:21.440Z,2.57
2019-05-28T08:08:49.678Z,2.20
2019-05-28T08:11:17.442Z,2.07
2019-05-28T08:13:44.976Z,2.40
2019-05-28T08:16:18.786Z,2.67
2019-05-28T08:18:41.884Z,2.60
2019-05-28T08:21:09.527Z,2.53
2019-05-28T08:23:37.078Z,2.57
2019-05-28T08:26:04.738Z,2.60
2019-05-28T08:28:32.285Z,2.30
2019-05-28T08:31:14.126Z,2.67
2019-05-28T08:33:29.207Z,2.10
2019-05-28T08:35:57.256Z,2.30
2019-05-28T08:38:24.775Z,1.90
2019-05-28T08:40:52.329Z,1.80
2019-05-28T08:43:19.910Z,1.67
2019-05-28T08:45:49.449Z,2.10
2019-05-28T08:48:16.943Z,1.67
2019-05-28T08:50:44.500Z,1.63
2019-05-28T08:53:12.000Z,1.50
2019-05-28T08:55:39.670Z,1.37
2019-05-28T08:58:07.325Z,1.43
2019-05-28T09:00:37.290Z,1.57
2019-05-28T09:03:05.312Z,1.30
2019-05-28T09:05:32.981Z,1.47
2019-05-28T09:08:00.534Z,1.40
2019-05-28T09:10:28.435Z,1.40
2019-05-28T09:12:55.972Z,1.43
2019-05-28T09:15:23.482Z,1.10
2019-05-28T09:17:50.979Z,1.30
2019-05-28T09:20:18.551Z,1.53
2019-05-28T09:22:46.095Z,1.30
2019-05-28T09:25:13.683Z,1.40
2019-05-28T09:27:42.290Z,1.50
2019-05-28T09:30:11.014Z,1.23
2019-05-28T09:32:38.613Z,1.40
2019-05-28T09:35:06.385Z,1.77
2019-05-28T09:37:33.930Z,1.40
2019-05-28T09:40:01.374Z,1.30
2019-05-28T09:42:28.938Z,1.40
2019-05-28T09:44:56.369Z,1.30
2019-05-28T09:47:23.947Z,1.30
2019-05-28T09:49:51.794Z,1.53
2019-05-28T09:52:19.401Z,1.17
2019-05-28T09:54:46.946Z,1.10
2019-05-28T09:57:14.501Z,1.17
2019-05-28T09:59:42.309Z,1.33
2019-05-28T10:02:09.808Z,1.00
2019-05-28T10:04:48.468Z,1.27
2019-05-28T10:07:12.940Z,1.10
2019-05-28T10:09:40.585Z,1.20
2019-05-28T10:12:08.151Z,1.20
2019-05-28T10:14:35.805Z,0.77
2019-05-28T10:17:04.833Z,0.60
2019-05-28T10:19:32.354Z,0.80
2019-05-28T10:21:59.912Z,0.67
2019-05-28T10:24:27.400Z,1.00
2019-05-28T10:27:00.627Z,0.90
2019-05-28T10:29:29.259Z,1.03
2019-05-28T10:31:56.807Z,1.30
2019-05-28T10:34:24.342Z,1.10
2019-05-28T10:36:51.929Z,0.87
2019-05-28T10:39:19.449Z,0.80
2019-05-28T10:41:47.065Z,0.80
2019-05-28T10:44:14.611Z,0.80
2019-05-28T10:46:42.144Z,0.70
2019-05-28T10:49:09.674Z,0.93
2019-05-28T10:51:37.236Z,0.90
2019-05-28T10:54:04.884Z,1.10
2019-05-28T10:56:32.686Z,1.13
2019-05-28T10:59:00.204Z,1.20
2019-05-28T11:01:27.733Z,1.40
2019-05-28T11:03:55.289Z,1.20
2019-05-28T11:06:22.862Z,1.20
2019-05-28T11:08:50.399Z,1.07
2019-05-28T11:11:17.894Z,1.30
2019-05-28T11:13:53.144Z,1.50
2019-05-28T11:16:14.820Z,1.40
2019-05-28T11:18:42.377Z,0.90
2019-05-28T11:21:10.363Z,1.33
2019-05-28T11:23:38.222Z,1.40
2019-05-28T11:26:05.818Z,1.30
2019-05-28T11:28:36.729Z,1.37
2019-05-28T11:31:04.254Z,1.20
2019-05-28T11:33:31.784Z,1.40
2019-05-28T11:36:01.295Z,1.40
2019-05-28T11:38:28.856Z,1.10
2019-05-28T11:40:56.377Z,1.60
2019-05-28T11:43:23.993Z,1.50
2019-05-28T11:45:51.510Z,1.63
2019-05-28T11:48:19.013Z,1.57
2019-05-28T11:50:46.553Z,1.50
2019-05-28T11:53:14.094Z,1.67
2019-05-28T11:55:41.699Z,1.57
2019-05-28T11:58:09.628Z,2.00
2019-05-28T12:00:37.204Z,1.50
2019-05-28T12:03:06.594Z,2.33
2019-05-28T12:05:34.178Z,2.60
2019-05-28T12:08:01.604Z,1.50
2019-05-28T12:10:29.270Z,1.40
2019-05-28T12:12:56.812Z,1.40
2019-05-28T12:15:25.291Z,1.67
2019-05-28T12:17:52.859Z,2.40
2019-05-28T12:20:21.411Z,2.30
2019-05-28T12:22:48.919Z,3.07
2019-05-28T12:25:16.846Z,3.57
2019-05-28T12:27:44.430Z,3.40
2019-05-28T12:30:12.691Z,3.20
2019-05-28T12:32:40.226Z,2.90
2019-05-28T12:35:26.235Z,2.73
2019-05-28T12:37:48.298Z,2.93
2019-05-28T12:40:08.167Z,3.00
2019-05-28T12:42:35.696Z,3.43
2019-05-28T12:45:09.407Z,2.57
2019-05-28T12:47:33.417Z,2.90
2019-05-28T12:50:17.896Z,3.43
2019-05-28T12:52:30.769Z,1.77
2019-05-28T12:54:58.328Z,1.20
2019-05-28T12:57:31.087Z,1.20
2019-05-28T12:59:58.707Z,1.20
2019-05-28T13:02:26.226Z,1.27
2019-05-28T13:04:53.688Z,1.60
2019-05-28T13:07:21.247Z,1.80
2019-05-28T13:09:50.820Z,1.50
2019-05-28T13:12:19.494Z,1.67
2019-05-28T13:14:47.029Z,2.00
2019-05-28T13:17:14.590Z,2.47
2019-05-28T13:19:42.128Z,2.47
2019-05-28T13:22:09.692Z,3.00
2019-05-28T13:24:37.287Z,3.10
2019-05-28T13:27:17.736Z,2.77
2019-05-28T13:29:34.245Z,2.50
2019-05-28T13:32:01.807Z,2.53
2019-05-28T13:34:29.328Z,2.00
2019-05-28T13:36:56.891Z,2.37
2019-05-28T13:39:24.452Z,2.20
2019-05-28T13:41:53.257Z,1.77
2019-05-28T13:44:20.813Z,1.90
2019-05-28T13:46:48.404Z,1.60
2019-05-28T13:49:15.943Z,1.50
2019-05-28T13:51:43.443Z,1.60
2019-05-28T13:54:10.993Z,1.93
2019-05-28T13:56:39.775Z,1.80
2019-05-28T13:59:07.216Z,1.70
2019-05-28T14:01:34.802Z,1.80
2019-05-28T14:04:02.813Z,1.40
2019-05-28T14:06:33.025Z,1.23
2019-05-28T14:09:00.570Z,1.40
2019-05-28T14:11:28.306Z,1.10
2019-05-28T14:13:55.817Z,1.10
2019-05-28T14:16:24.367Z,1.30
2019-05-28T14:18:51.949Z,1.80
2019-05-28T14:21:19.470Z,2.00
2019-05-28T14:23:47.487Z,2.30
2019-05-28T14:26:15.168Z,2.27
2019-05-28T14:28:42.801Z,2.80
2019-05-28T14:31:10.415Z,2.40
2019-05-28T14:33:37.943Z,2.30
2019-05-28T14:36:09.911Z,2.00
2019-05-28T14:38:37.464Z,2.50
2019-05-28T14:41:05.533Z,2.00
2019-05-28T14:43:33.867Z,2.00
2019-05-28T14:46:01.403Z,2.17
2019-05-28T14:48:29.211Z,2.10
2019-05-28T14:50:56.756Z,2.30
2019-05-28T14:53:24.338Z,2.60
2019-05-28T14:55:51.873Z,2.40
2019-05-28T14:58:19.405Z,2.50
2019-05-28T15:00:47.021Z,2.50
2019-05-28T15:03:14.491Z,2.70
2019-05-28T15:05:44.265Z,2.17
2019-05-28T15:08:11.733Z,2.70
2019-05-28T15:10:40.122Z,2.60
2019-05-28T15:13:09.689Z,2.90
2019-05-28T15:15:37.229Z,3.20
2019-05-28T15:18:04.769Z,3.23
2019-05-28T15:20:32.343Z,3.33
2019-05-28T15:22:59.903Z,3.57
2019-05-28T15:25:27.425Z,3.03
2019-05-28T15:27:54.987Z,2.67
2019-05-28T15:30:24.399Z,1.60
2019-05-28T15:32:51.979Z,1.17
2019-05-28T15:35:19.733Z,0.80
2019-05-28T15:37:47.391Z,0.90
2019-05-28T15:40:16.679Z,1.00
2019-05-28T15:42:46.769Z,1.20
2019-05-28T15:45:14.499Z,1.37
2019-05-28T15:47:44.969Z,1.23
2019-05-28T15:50:16.191Z,1.50
2019-05-28T15:52:44.549Z,1.60
2019-05-28T15:55:13.679Z,1.70
2019-05-28T15:57:41.626Z,1.30
2019-05-28T16:00:11.473Z,1.30
2019-05-28T16:02:39.083Z,1.40
2019-05-28T16:05:09.610Z,1.40
2019-05-28T16:07:37.151Z,1.43
2019-05-28T16:10:08.416Z,1.40
2019-05-28T16:12:35.938Z,1.50
2019-05-28T16:15:04.556Z,1.60
2019-05-28T16:17:32.138Z,1.70
2019-05-28T16:19:59.673Z,1.50
2019-05-28T16:22:27.270Z,1.90
2019-05-28T16:24:54.853Z,2.03
2019-05-28T16:27:22.295Z,1.80
2019-05-28T16:29:49.896Z,2.40
2019-05-28T16:32:17.508Z,2.00
2019-05-28T16:34:45.022Z,2.50
2019-05-28T16:37:12.536Z,3.70
2019-05-28T16:39:40.946Z,3.90
2019-05-28T16:42:08.533Z,3.70
2019-05-28T16:44:36.207Z,4.73
2019-05-28T16:47:17.854Z,4.77
2019-05-28T16:49:33.132Z,6.00
2019-05-28T16:52:00.639Z,6.10
2019-05-28T16:54:28.195Z,5.33
2019-05-28T16:57:03.016Z,5.10
2019-05-28T16:59:30.625Z,5.50
2019-05-28T17:01:58.183Z,6.50
2019-05-28T17:04:25.786Z,5.90
2019-05-28T17:07:05.248Z,6.07
2019-05-28T17:09:32.937Z,7.20
2019-05-28T17:12:00.427Z,8.17
2019-05-28T17:14:28.031Z,8.13
2019-05-28T17:16:55.853Z,8.47
2019-05-28T17:19:23.358Z,8.03
2019-05-28T17:21:51.007Z,7.60
2019-05-28T17:24:20.638Z,7.00
2019-05-28T17:26:48.209Z,7.20
2019-05-28T17:29:15.963Z,8.17
2019-05-28T17:31:43.608Z,7.67
2019-05-28T17:34:13.895Z,7.67
2019-05-28T17:36:41.544Z,8.10
2019-05-28T17:39:12.831Z,7.33
2019-05-28T17:41:40.519Z,6.63
2019-05-28T17:44:08.163Z,6.77
2019-05-28T17:46:37.884Z,6.97
2019-05-28T17:49:06.955Z,7.20
2019-05-28T17:51:34.595Z,6.23
2019-05-28T17:54:02.247Z,6.30
2019-05-28T17:56:30.868Z,7.17
2019-05-28T17:58:58.528Z,7.40
2019-05-28T18:01:26.385Z,6.53
2019-05-28T18:03:54.053Z,7.40
2019-05-28T18:06:24.706Z,7.63
2019-05-28T18:08:52.281Z,7.10
2019-05-28T18:11:19.981Z,7.17
2019-05-28T18:13:47.553Z,7.53
2019-05-28T18:16:15.523Z,7.97
2019-05-28T18:18:43.228Z,7.67
2019-05-28T18:21:10.869Z,8.40
2019-05-28T18:23:38.546Z,7.17
2019-05-28T18:26:07.146Z,7.13
2019-05-28T18:28:34.808Z,7.40
2019-05-28T18:31:02.510Z,7.83
2019-05-28T18:33:30.173Z,7.97
2019-05-28T18:35:57.816Z,7.83
2019-05-28T18:38:25.475Z,8.70
2019-05-28T18:40:53.485Z,8.63
2019-05-28T18:43:26.167Z,8.83
2019-05-28T18:45:58.958Z,9.03
2019-05-28T18:48:26.766Z,9.10
2019-05-28T18:50:57.326Z,10.03
2019-05-28T18:53:26.495Z,9.10
2019-05-28T18:55:54.152Z,9.40
2019-05-28T18:58:21.938Z,9.07
2019-05-28T19:00:57.155Z,9.17
2019-05-28T19:03:24.770Z,9.33
2019-05-28T19:05:52.421Z,8.83
2019-05-28T19:08:20.088Z,9.33
2019-05-28T19:10:47.859Z,9.67
2019-05-28T19:13:15.494Z,8.93
2019-05-28T19:15:43.133Z,9.30
2019-05-28T19:18:10.871Z,8.73
2019-05-28T19:20:38.493Z,8.33
2019-05-28T19:23:06.148Z,8.13
2019-05-28T19:25:33.743Z,7.77
2019-05-28T19:28:01.392Z,8.00
2019-05-28T19:30:33.241Z,7.10
2019-05-28T19:33:03.236Z,7.57
2019-05-28T19:35:30.946Z,7.50
2019-05-28T19:37:58.989Z,8.10
2019-05-28T19:40:37.781Z,8.10
2019-05-28T19:43:05.669Z,7.60
2019-05-28T19:45:34.308Z,7.43
2019-05-28T19:48:02.070Z,7.70
2019-05-28T19:50:29.897Z,7.47
2019-05-28T19:52:57.619Z,8.13
2019-05-28T19:55:25.698Z,7.90
2019-05-28T19:57:54.559Z,8.17
2019-05-28T20:00:22.510Z,8.40
2019-05-28T20:02:50.170Z,8.30
2019-05-28T20:05:18.171Z,9.43
2019-05-28T20:08:03.852Z,8.67
2019-05-28T20:10:31.444Z,8.57
2019-05-28T20:12:59.084Z,8.83
2019-05-28T20:15:27.291Z,9.13
2019-05-28T20:18:00.327Z,9.07
2019-05-28T20:20:27.763Z,9.83
2019-05-28T20:22:56.158Z,9.23
2019-05-28T20:25:23.958Z,10.73
2019-05-28T20:27:53.868Z,9.93
2019-05-28T20:30:21.702Z,10.83
2019-05-28T20:32:49.266Z,10.47
2019-05-28T20:35:16.959Z,9.97
2019-05-28T20:37:44.539Z,10.87
2019-05-28T20:40:14.841Z,11.10
2019-05-28T20:42:42.568Z,11.47
2019-05-28T20:45:12.054Z,11.10
2019-05-28T20:47:39.956Z,11.13
2019-05-28T20:50:07.781Z,11.17
2019-05-28T20:52:35.531Z,12.37
2019-05-28T20:55:04.108Z,11.80
2019-05-28T20:57:33.806Z,12.03
2019-05-28T21:00:01.494Z,12.03
2019-05-28T21:02:29.172Z,12.63
2019-05-28T21:04:56.941Z,13.20
2019-05-28T21:07:24.571Z,13.13
2019-05-28T21:09:52.272Z,13.03
2019-05-28T21:12:19.922Z,13.60
2019-05-28T21:14:48.637Z,13.33
2019-05-28T21:17:16.424Z,13.00
2019-05-28T21:19:44.190Z,14.03
2019-05-28T21:22:25.765Z,14.10
2019-05-28T21:24:41.350Z,14.83
2019-05-28T21:27:10.037Z,13.97
2019-05-28T21:29:37.717Z,14.30
2019-05-28T21:32:05.379Z,13.90
2019-05-28T21:34:32.986Z,13.30
2019-05-28T21:37:01.640Z,14.27
2019-05-28T21:39:30.215Z,13.03
2019-05-28T21:42:00.129Z,13.10
2019-05-28T21:44:27.548Z,12.90
2019-05-28T21:46:56.359Z,12.57
2019-05-28T21:49:24.329Z,12.27
2019-05-28T21:51:52.757Z,13.80
2019-05-28T21:54:20.688Z,9.60
2019-05-28T21:56:48.325Z,11.10
2019-05-28T21:59:16.184Z,10.73
2019-05-28T22:01:44.086Z,10.30
2019-05-28T22:04:11.719Z,10.67
2019-05-28T22:06:42.359Z,9.93
2019-05-28T22:09:10.100Z,10.37
2019-05-28T22:11:37.798Z,10.13
2019-05-28T22:14:05.569Z,10.17
2019-05-28T22:16:33.279Z,9.57
2019-05-28T22:19:00.986Z,10.03
2019-05-28T22:21:28.760Z,9.87
2019-05-28T22:23:56.395Z,9.43
2019-05-28T22:26:23.961Z,9.47
2019-05-28T22:28:51.551Z,9.13
2019-05-28T22:31:19.825Z,8.93
2019-05-28T22:33:48.177Z,8.00
2019-05-28T22:36:15.802Z,8.10
2019-05-28T22:38:45.855Z,7.43
2019-05-28T22:41:14.306Z,7.83
2019-05-28T22:43:42.008Z,7.70
2019-05-28T22:46:12.632Z,7.40
2019-05-28T22:48:40.312Z,7.60
2019-05-28T22:51:07.823Z,7.93
2019-05-28T22:53:35.467Z,7.30
2019-05-28T22:56:04.044Z,7.00
2019-05-28T22:58:32.365Z,7.83
2019-05-28T23:01:00.392Z,7.27
2019-05-28T23:03:28.157Z,6.80
2019-05-28T23:05:55.662Z,6.70
2019-05-28T23:08:23.089Z,6.93
2019-05-28T23:10:50.628Z,6.50
2019-05-28T23:13:18.146Z,6.10
2019-05-28T23:15:45.689Z,6.07
2019-05-28T23:18:13.543Z,6.07
2019-05-28T23:20:41.199Z,5.90
2019-05-28T23:23:09.371Z,5.40
2019-05-28T23:25:37.528Z,5.67
2019-05-28T23:28:05.557Z,5.40
2019-05-28T23:30:33.491Z,6.10
2019-05-28T23:33:02.202Z,5.60
2019-05-28T23:35:29.787Z,5.17
2019-05-28T23:37:57.211Z,4.73
2019-05-28T23:40:24.784Z,5.47
2019-05-28T23:42:52.341Z,4.70
2019-05-28T23:45:19.854Z,4.40
2019-05-28T23:47:50.934Z,5.20
2019-05-28T23:50:18.480Z,4.77
2019-05-28T23:52:45.922Z,5.20
2019-05-28T23:55:13.883Z,5.10
2019-05-28T23:57:41.534Z,4.83
